createdAt,value
2019-01-27T00:01:16.184Z,6.63
2019-01-27T00:03:45.577Z,9.83
2019-01-27T00:06:15.002Z,9.93
2019-01-27T00:08:46.458Z,7.57
2019-01-27T00:11:15.937Z,8.60
2019-01-27T00:13:45.294Z,5.03
2019-01-27T00:16:14.921Z,7.37
2019-01-27T00:18:44.205Z,5.80
2019-01-27T00:21:13.682Z,8.17
2019-01-27T00:23:42.982Z,7.23
2019-01-27T00:26:13.526Z,8.03
2019-01-27T00:28:42.852Z,8.43
2019-01-27T00:31:12.288Z,7.87
2019-01-27T00:33:41.670Z,6.50
2019-01-27T00:36:11.106Z,5.87
2019-01-27T00:38:40.404Z,4.87
2019-01-27T00:41:10.736Z,5.93
2019-01-27T00:43:39.996Z,6.93
2019-01-27T00:46:10.429Z,7.10
2019-01-27T00:48:39.785Z,7.80
2019-01-27T00:51:09.190Z,8.27
2019-01-27T00:53:40.829Z,6.57
2019-01-27T00:56:10.260Z,8.07
2019-01-27T00:58:39.519Z,8.33
2019-01-27T01:01:09.960Z,8.70
2019-01-27T01:03:40.879Z,8.23
2019-01-27T01:06:10.460Z,7.00
2019-01-27T01:08:39.734Z,7.20
2019-01-27T01:11:09.100Z,6.30
2019-01-27T01:13:39.673Z,9.87
2019-01-27T01:16:08.982Z,6.87
2019-01-27T01:18:39.522Z,8.33
2019-01-27T01:21:08.881Z,9.47
2019-01-27T01:23:38.441Z,10.03
2019-01-27T01:26:07.743Z,10.87
2019-01-27T01:28:37.149Z,10.20
2019-01-27T01:31:06.610Z,10.90
2019-01-27T01:33:36.379Z,8.87
2019-01-27T01:36:06.044Z,7.93
2019-01-27T01:38:35.458Z,7.43
2019-01-27T01:41:05.709Z,7.43
2019-01-27T01:43:35.243Z,7.87
2019-01-27T01:46:04.928Z,8.57
2019-01-27T01:48:34.347Z,7.57
2019-01-27T01:51:04.809Z,6.47
2019-01-27T01:53:34.177Z,6.03
2019-01-27T01:56:03.509Z,31.50
2019-01-27T01:58:32.736Z,18.50
2019-01-27T02:01:02.090Z,11.17
2019-01-27T02:03:31.360Z,10.60
2019-01-27T02:06:00.800Z,9.20
2019-01-27T02:08:30.292Z,10.53
2019-01-27T02:10:59.671Z,10.23
2019-01-27T02:13:28.926Z,9.17
2019-01-27T02:16:03.436Z,7.43
2019-01-27T02:18:33.446Z,7.87
2019-01-27T02:21:04.761Z,7.70
2019-01-27T02:23:34.040Z,9.23
2019-01-27T02:26:03.646Z,9.93
2019-01-27T02:28:32.891Z,7.83
2019-01-27T02:31:03.293Z,10.97
2019-01-27T02:33:32.650Z,10.50
2019-01-27T02:36:02.145Z,9.70
2019-01-27T02:38:31.375Z,10.40
2019-01-27T02:41:00.690Z,11.40
2019-01-27T02:43:30.052Z,10.73
2019-01-27T02:45:59.433Z,11.97
2019-01-27T02:48:28.701Z,12.17
2019-01-27T02:50:58.088Z,11.10
2019-01-27T02:53:27.330Z,13.20
2019-01-27T02:55:56.761Z,11.77
2019-01-27T02:58:26.073Z,16.43
2019-01-27T03:00:55.430Z,15.67
2019-01-27T03:03:24.648Z,16.87
2019-01-27T03:06:08.374Z,15.60
2019-01-27T03:09:02.607Z,19.20
2019-01-27T03:11:47.864Z,13.87
2019-01-27T03:14:18.791Z,15.77
2019-01-27T03:16:54.744Z,14.23
2019-01-27T03:19:24.036Z,14.07
2019-01-27T03:21:53.397Z,13.33
2019-01-27T03:24:22.640Z,15.27
2019-01-27T03:26:52.192Z,15.47
2019-01-27T03:29:21.572Z,14.00
2019-01-27T03:31:50.877Z,16.43
2019-01-27T03:34:20.207Z,15.83
2019-01-27T03:36:49.666Z,13.57
2019-01-27T03:39:19.144Z,16.00
2019-01-27T03:41:48.457Z,13.73
2019-01-27T03:44:17.906Z,15.57
2019-01-27T03:46:47.165Z,20.17
2019-01-27T03:49:16.529Z,18.60
2019-01-27T03:51:45.858Z,15.80
2019-01-27T03:54:15.153Z,16.60
2019-01-27T03:56:44.455Z,14.47
2019-01-27T03:59:14.080Z,16.20
2019-01-27T04:01:43.463Z,14.33
2019-01-27T04:04:12.786Z,17.67
2019-01-27T04:06:42.204Z,16.97
2019-01-27T04:09:13.268Z,19.93
2019-01-27T04:11:43.014Z,18.47
2019-01-27T04:14:12.410Z,19.13
2019-01-27T04:16:41.676Z,20.37
2019-01-27T04:19:11.130Z,21.83
2019-01-27T04:21:40.995Z,19.87
2019-01-27T04:24:10.379Z,18.40
2019-01-27T04:26:39.858Z,22.97
2019-01-27T04:29:09.462Z,20.97
2019-01-27T04:31:38.870Z,20.07
2019-01-27T04:34:08.211Z,20.90
2019-01-27T04:36:37.773Z,19.67
2019-01-27T04:39:10.225Z,21.70
2019-01-27T04:41:39.787Z,24.03
2019-01-27T04:44:09.208Z,21.60
2019-01-27T04:46:38.561Z,22.97
2019-01-27T04:49:10.633Z,20.10
2019-01-27T04:51:39.912Z,27.90
2019-01-27T04:54:09.261Z,23.03
2019-01-27T04:56:38.584Z,24.60
2019-01-27T04:59:07.905Z,23.13
2019-01-27T05:01:37.231Z,24.13
2019-01-27T05:04:28.805Z,22.40
2019-01-27T05:06:58.080Z,21.90
2019-01-27T05:09:27.397Z,25.77
2019-01-27T05:11:56.658Z,32.90
2019-01-27T05:14:27.046Z,28.43
2019-01-27T05:16:56.277Z,29.50
2019-01-27T05:19:25.896Z,26.20
2019-01-27T05:21:55.183Z,26.53
2019-01-27T05:24:24.589Z,25.27
2019-01-27T05:26:53.893Z,20.67
2019-01-27T05:29:28.113Z,16.40
2019-01-27T05:31:57.391Z,17.73
2019-01-27T05:34:26.765Z,16.37
2019-01-27T05:36:56.459Z,18.70
2019-01-27T05:39:25.877Z,16.53
2019-01-27T05:41:55.298Z,16.13
2019-01-27T05:44:24.590Z,16.73
2019-01-27T05:46:53.962Z,17.90
2019-01-27T05:49:23.833Z,14.07
2019-01-27T05:51:53.295Z,15.87
2019-01-27T05:54:22.747Z,17.90
2019-01-27T05:56:56.448Z,20.00
2019-01-27T05:59:23.093Z,18.30
2019-01-27T06:01:52.369Z,12.70
2019-01-27T06:04:21.920Z,12.93
2019-01-27T06:06:51.175Z,12.63
2019-01-27T06:09:20.881Z,16.07
2019-01-27T06:11:50.126Z,14.23
2019-01-27T06:14:19.648Z,13.87
2019-01-27T06:16:49.340Z,13.77
2019-01-27T06:19:18.772Z,12.90
2019-01-27T06:21:48.028Z,13.97
2019-01-27T06:24:19.482Z,12.37
2019-01-27T06:26:48.722Z,10.77
2019-01-27T06:29:18.195Z,13.43
2019-01-27T06:31:47.400Z,12.00
2019-01-27T06:34:19.030Z,13.37
2019-01-27T06:36:48.311Z,14.53
2019-01-27T06:39:17.582Z,16.17
2019-01-27T06:41:46.844Z,17.23
2019-01-27T06:44:18.637Z,15.10
2019-01-27T06:46:47.973Z,14.30
2019-01-27T06:49:17.338Z,12.97
2019-01-27T06:51:46.657Z,14.60
2019-01-27T06:54:17.589Z,16.40
2019-01-27T06:56:47.036Z,18.30
2019-01-27T06:59:33.409Z,15.43
2019-01-27T07:02:15.347Z,14.00
2019-01-27T07:04:51.487Z,18.50
2019-01-27T07:07:42.464Z,20.63
2019-01-27T07:10:30.956Z,26.27
2019-01-27T07:13:09.157Z,30.97
2019-01-27T07:15:58.536Z,35.83
2019-01-27T07:18:48.416Z,41.17
2019-01-27T07:21:31.249Z,43.23
2019-01-27T07:24:26.093Z,43.07
2019-01-27T07:27:06.720Z,47.40
2019-01-27T07:29:54.007Z,58.80
2019-01-27T07:32:40.925Z,59.20
2019-01-27T07:35:29.044Z,66.90
2019-01-27T07:38:10.316Z,67.30
2019-01-27T07:41:01.545Z,64.73
2019-01-27T07:43:44.852Z,71.77
2019-01-27T07:46:35.987Z,68.40
2019-01-27T07:49:22.056Z,72.17
2019-01-27T07:52:19.362Z,74.27
2019-01-27T07:55:06.633Z,65.47
2019-01-27T07:58:04.205Z,72.97
2019-01-27T08:00:40.782Z,74.33
2019-01-27T08:03:21.512Z,72.60
2019-01-27T08:06:05.771Z,68.57
2019-01-27T08:08:54.100Z,78.57
2019-01-27T08:11:37.449Z,78.50
2019-01-27T08:14:24.631Z,76.10
2019-01-27T08:17:25.286Z,71.60
2019-01-27T08:20:11.790Z,67.20
2019-01-27T08:23:01.221Z,69.90
2019-01-27T08:25:38.609Z,71.50
2019-01-27T08:28:33.869Z,72.60
2019-01-27T08:31:09.801Z,69.83
2019-01-27T08:33:51.222Z,68.20
2019-01-27T08:36:42.519Z,77.23
2019-01-27T08:39:49.269Z,80.50
2019-01-27T08:42:52.630Z,63.33
2019-01-27T08:45:43.733Z,61.43
2019-01-27T08:48:13.085Z,69.97
2019-01-27T08:50:42.513Z,72.97
2019-01-27T08:53:11.901Z,72.33
2019-01-27T08:55:42.342Z,68.37
2019-01-27T08:58:11.779Z,67.97
2019-01-27T09:00:45.514Z,68.97
2019-01-27T09:03:32.695Z,66.63
2019-01-27T09:06:33.741Z,67.57
2019-01-27T09:09:16.112Z,71.90
2019-01-27T09:12:05.721Z,67.53
2019-01-27T09:14:52.610Z,66.27
2019-01-27T09:17:32.257Z,69.33
2019-01-27T09:20:08.923Z,68.47
2019-01-27T09:22:56.265Z,64.27
2019-01-27T09:25:44.549Z,70.57
2019-01-27T09:28:38.704Z,64.57
2019-01-27T09:31:27.513Z,67.50
2019-01-27T09:34:14.872Z,64.80
2019-01-27T09:37:12.006Z,59.57
2019-01-27T09:39:49.161Z,58.53
2019-01-27T09:42:49.402Z,65.83
2019-01-27T09:45:40.812Z,64.73
2019-01-27T09:48:32.225Z,66.17
2019-01-27T09:51:13.373Z,66.77
2019-01-27T09:53:53.345Z,59.43
2019-01-27T09:56:31.547Z,61.10
2019-01-27T09:59:19.936Z,63.50
2019-01-27T10:01:55.147Z,59.60
2019-01-27T10:04:33.462Z,63.00
2019-01-27T10:07:08.012Z,65.07
2019-01-27T10:10:02.299Z,68.77
2019-01-27T10:12:40.532Z,58.73
2019-01-27T10:15:29.401Z,60.10
2019-01-27T10:18:10.021Z,55.73
2019-01-27T10:20:57.887Z,59.33
2019-01-27T10:23:48.911Z,57.53
2019-01-27T10:26:50.404Z,62.37
2019-01-27T10:29:28.403Z,65.30
2019-01-27T10:32:15.687Z,62.17
2019-01-27T10:35:04.093Z,62.80
2019-01-27T10:37:51.384Z,64.53
2019-01-27T10:40:39.750Z,63.30
2019-01-27T10:43:28.179Z,65.20
2019-01-27T10:46:15.208Z,65.10
2019-01-27T10:49:21.933Z,64.07
2019-01-27T10:51:59.110Z,66.97
2019-01-27T10:54:37.418Z,64.20
2019-01-27T10:57:12.998Z,69.70
2019-01-27T10:59:58.809Z,67.93
2019-01-27T11:02:46.063Z,70.27
2019-01-27T11:05:22.156Z,64.60
2019-01-27T11:08:19.439Z,72.93
2019-01-27T11:11:14.434Z,66.03
2019-01-27T11:13:53.545Z,68.57
2019-01-27T11:16:55.356Z,67.13
2019-01-27T11:19:43.043Z,76.20
2019-01-27T11:22:28.946Z,67.90
2019-01-27T11:25:30.051Z,75.10
2019-01-27T11:28:22.628Z,81.53
2019-01-27T11:35:16.031Z,68.37
2019-01-27T11:38:08.414Z,70.23
2019-01-27T11:41:02.769Z,66.93
2019-01-27T11:44:14.752Z,65.50
2019-01-27T11:47:31.261Z,67.20
2019-01-27T11:57:25.217Z,67.43
2019-01-27T12:00:39.363Z,72.37
2019-01-27T12:03:08.956Z,64.07
2019-01-27T12:05:38.274Z,71.47
2019-01-27T12:08:09.597Z,66.30
2019-01-27T12:10:39.018Z,74.80
2019-01-27T12:13:08.505Z,69.20
2019-01-27T12:15:37.748Z,74.50
2019-01-27T12:18:07.148Z,73.47
2019-01-27T12:20:36.396Z,70.77
2019-01-27T12:23:05.844Z,69.80
2019-01-27T12:25:35.151Z,64.27
2019-01-27T12:28:04.957Z,67.53
2019-01-27T12:30:34.241Z,69.10
2019-01-27T12:33:03.828Z,67.97
2019-01-27T12:35:33.317Z,65.33
2019-01-27T12:38:02.824Z,68.33
2019-01-27T12:40:32.122Z,78.43
2019-01-27T12:43:01.590Z,65.07
2019-01-27T12:45:30.813Z,70.17
2019-01-27T12:48:01.101Z,68.40
2019-01-27T12:50:30.358Z,74.23
2019-01-27T12:53:00.770Z,70.27
2019-01-27T12:55:32.525Z,76.17
2019-01-27T12:58:01.949Z,74.93
2019-01-27T13:00:34.460Z,68.73
2019-01-27T13:03:09.425Z,76.10
2019-01-27T13:05:38.853Z,76.93
2019-01-27T13:08:08.240Z,74.80
2019-01-27T13:10:37.461Z,73.50
2019-01-27T13:13:11.907Z,83.10
2019-01-27T13:15:37.915Z,74.53
2019-01-27T13:18:07.229Z,75.20
2019-01-27T13:20:36.496Z,75.30
2019-01-27T13:23:06.023Z,83.00
2019-01-27T13:25:35.339Z,74.13
2019-01-27T13:28:04.956Z,77.37
2019-01-27T13:30:34.268Z,79.60
2019-01-27T13:33:03.792Z,77.07
2019-01-27T13:35:33.059Z,78.80
2019-01-27T13:38:06.242Z,78.43
2019-01-27T13:40:35.674Z,82.57
2019-01-27T13:43:05.281Z,82.03
2019-01-27T13:45:34.655Z,77.90
2019-01-27T13:48:05.900Z,85.17
2019-01-27T13:50:35.274Z,84.90
2019-01-27T13:53:05.722Z,71.07
2019-01-27T13:55:35.484Z,78.87
2019-01-27T13:58:06.163Z,88.80
2019-01-27T14:00:38.184Z,81.23
2019-01-27T14:03:07.937Z,81.80
2019-01-27T14:05:37.703Z,78.07
2019-01-27T14:08:08.738Z,78.77
2019-01-27T14:10:38.450Z,75.93
2019-01-27T14:13:08.405Z,86.33
2019-01-27T14:15:38.080Z,76.70
2019-01-27T14:18:08.825Z,79.70
2019-01-27T14:20:38.152Z,75.70
2019-01-27T14:23:07.666Z,74.37
2019-01-27T14:25:37.145Z,78.90
2019-01-27T14:28:06.556Z,77.87
2019-01-27T14:30:39.320Z,77.03
2019-01-27T14:33:08.764Z,74.50
2019-01-27T14:35:38.353Z,72.90
2019-01-27T14:38:07.856Z,134.37
2019-01-27T14:40:37.140Z,80.00
2019-01-27T14:43:07.874Z,76.83
2019-01-27T14:45:37.478Z,89.17
2019-01-27T14:48:07.611Z,80.27
2019-01-27T14:50:39.668Z,75.83
2019-01-27T14:53:10.435Z,76.47
2019-01-27T14:55:40.001Z,79.37
2019-01-27T14:58:10.367Z,75.63
2019-01-27T15:00:41.565Z,76.97
2019-01-27T15:03:13.093Z,81.73
2019-01-27T15:05:43.655Z,75.83
2019-01-27T15:08:16.019Z,77.57
2019-01-27T15:10:52.033Z,76.63
2019-01-27T15:13:22.777Z,79.47
2019-01-27T15:15:52.732Z,81.63
2019-01-27T15:18:22.575Z,78.30
2019-01-27T15:21:05.397Z,78.93
2019-01-27T15:23:35.045Z,82.40
2019-01-27T15:26:17.234Z,77.77
2019-01-27T15:28:48.489Z,115.13
2019-01-27T15:31:17.777Z,88.07
2019-01-27T15:33:47.299Z,78.90
2019-01-27T15:36:16.807Z,79.07
2019-01-27T15:38:46.779Z,76.27
2019-01-27T15:41:16.085Z,84.30
2019-01-27T15:43:48.684Z,76.23
2019-01-27T15:46:16.616Z,80.70
2019-01-27T15:48:47.685Z,83.57
2019-01-27T15:51:19.446Z,79.03
2019-01-27T15:53:49.498Z,78.10
2019-01-27T15:56:20.746Z,86.60
2019-01-27T15:58:50.964Z,73.20
2019-01-27T16:01:20.330Z,80.50
2019-01-27T16:03:49.784Z,77.67
2019-01-27T16:06:20.027Z,76.63
2019-01-27T16:08:49.713Z,84.47
2019-01-27T16:11:19.745Z,83.00
2019-01-27T16:13:49.120Z,79.97
2019-01-27T16:16:18.573Z,76.93
2019-01-27T16:18:48.049Z,77.80
2019-01-27T16:21:17.754Z,81.10
2019-01-27T16:23:53.329Z,74.13
2019-01-27T16:26:22.866Z,83.43
2019-01-27T16:28:52.751Z,81.53
2019-01-27T16:31:50.081Z,84.53
2019-01-27T16:34:35.659Z,86.57
2019-01-27T16:37:06.195Z,84.10
2019-01-27T16:39:36.621Z,82.03
2019-01-27T16:42:06.052Z,82.37
2019-01-27T16:44:35.524Z,80.63
2019-01-27T16:47:04.962Z,70.27
2019-01-27T16:49:34.449Z,74.20
2019-01-27T16:52:04.174Z,68.00
2019-01-27T16:54:34.994Z,67.40
2019-01-27T16:57:04.261Z,63.80
2019-01-27T16:59:34.346Z,71.43
2019-01-27T17:02:03.942Z,69.77
2019-01-27T17:04:33.264Z,68.23
2019-01-27T17:07:02.668Z,66.63
2019-01-27T17:09:32.466Z,65.90
2019-01-27T17:12:01.898Z,70.37
2019-01-27T17:14:31.370Z,69.50
2019-01-27T17:17:00.658Z,67.73
2019-01-27T17:19:30.082Z,70.97
2019-01-27T17:22:00.345Z,68.17
2019-01-27T17:24:29.787Z,61.17
2019-01-27T17:26:59.065Z,63.87
2019-01-27T17:29:28.550Z,69.43
2019-01-27T17:31:58.997Z,68.20
2019-01-27T17:34:28.356Z,65.67
2019-01-27T17:36:57.704Z,69.37
2019-01-27T17:39:27.154Z,63.27
2019-01-27T17:41:58.408Z,70.13
2019-01-27T17:44:27.769Z,67.37
2019-01-27T17:46:57.029Z,71.40
2019-01-27T17:49:26.437Z,71.07
2019-01-27T17:51:55.693Z,64.70
2019-01-27T17:54:25.158Z,65.80
2019-01-27T17:57:02.612Z,71.27
2019-01-27T17:59:40.410Z,66.43
2019-01-27T18:02:28.957Z,67.67
2019-01-27T18:05:34.347Z,65.10
2019-01-27T18:08:08.092Z,63.37
2019-01-27T18:10:46.827Z,64.13
2019-01-27T18:13:29.887Z,64.53
2019-01-27T18:16:01.533Z,62.00
2019-01-27T18:18:32.093Z,61.87
2019-01-27T18:21:02.678Z,71.03
2019-01-27T18:23:38.272Z,64.60
2019-01-27T18:26:07.693Z,65.00
2019-01-27T18:28:38.689Z,73.13
2019-01-27T18:31:11.819Z,70.73
2019-01-27T18:33:47.385Z,70.37
2019-01-27T18:36:18.198Z,67.93
2019-01-27T18:38:48.272Z,66.17
2019-01-27T18:41:19.623Z,65.23
2019-01-27T18:43:49.278Z,61.50
2019-01-27T18:46:19.736Z,69.33
2019-01-27T18:48:50.003Z,72.43
2019-01-27T18:51:20.893Z,64.80
2019-01-27T18:54:31.043Z,75.33
2019-01-27T18:57:13.198Z,63.47
2019-01-27T18:59:49.319Z,70.80
2019-01-27T19:02:41.435Z,79.83
2019-01-27T19:05:31.373Z,67.40
2019-01-27T19:08:23.389Z,70.77
2019-01-27T19:10:59.571Z,71.17
2019-01-27T19:13:48.153Z,66.53
2019-01-27T19:16:29.337Z,70.23
2019-01-27T19:19:23.941Z,72.30
2019-01-27T19:22:02.276Z,71.93
2019-01-27T19:25:01.106Z,71.97
2019-01-27T19:27:42.104Z,70.60
2019-01-27T19:30:35.008Z,73.33
2019-01-27T19:33:11.133Z,72.83
2019-01-27T19:35:48.374Z,68.53
2019-01-27T19:38:36.880Z,75.93
2019-01-27T19:41:26.602Z,72.03
2019-01-27T19:44:25.040Z,78.43
2019-01-27T19:47:09.252Z,75.80
2019-01-27T19:49:55.577Z,80.70
2019-01-27T19:52:42.701Z,82.60
2019-01-27T19:55:28.434Z,67.33
2019-01-27T19:58:04.526Z,76.90
2019-01-27T20:00:55.916Z,72.03
2019-01-27T20:03:57.119Z,81.33
2019-01-27T20:06:35.429Z,71.90
2019-01-27T20:09:29.591Z,78.13
2019-01-27T20:12:17.685Z,81.63
2019-01-27T20:14:59.891Z,81.97
2019-01-27T20:17:58.003Z,84.13
2019-01-27T20:20:49.870Z,75.33
2019-01-27T20:23:27.284Z,73.17
2019-01-27T20:26:16.488Z,73.73
2019-01-27T20:29:09.690Z,73.60
2019-01-27T20:31:52.136Z,70.17
2019-01-27T20:34:52.136Z,67.57
2019-01-27T20:48:19.476Z,66.93
2019-01-27T20:51:00.853Z,68.07
2019-01-27T20:53:35.139Z,66.27
2019-01-27T20:56:22.510Z,69.83
2019-01-27T20:59:10.560Z,68.50
2019-01-27T21:02:10.758Z,76.27
2019-01-27T21:04:59.191Z,72.77
2019-01-27T21:07:36.828Z,73.37
2019-01-27T21:10:22.583Z,72.13
2019-01-27T21:13:16.892Z,72.90
2019-01-27T21:15:51.621Z,74.57
2019-01-27T21:18:51.925Z,77.77
2019-01-27T21:21:21.329Z,70.20
2019-01-27T21:23:50.564Z,72.53
2019-01-27T21:26:20.060Z,80.40
2019-01-27T21:28:49.333Z,73.13
2019-01-27T21:31:18.917Z,76.97
2019-01-27T21:33:48.257Z,73.13
2019-01-27T21:36:17.698Z,75.00
2019-01-27T21:38:46.955Z,72.43
2019-01-27T21:41:16.409Z,74.80
2019-01-27T21:43:45.758Z,72.93
2019-01-27T21:46:15.134Z,76.23
2019-01-27T21:48:44.449Z,74.63
2019-01-27T21:51:14.196Z,77.77
2019-01-27T21:53:43.432Z,79.13
2019-01-27T21:56:12.715Z,76.47
2019-01-27T21:58:42.061Z,74.90
2019-01-27T22:01:11.393Z,69.90
2019-01-27T22:03:40.843Z,73.50
2019-01-27T22:06:10.433Z,75.37
2019-01-27T22:08:39.661Z,77.10
2019-01-27T22:11:09.092Z,81.07
2019-01-27T22:13:38.513Z,74.07
2019-01-27T22:16:07.945Z,75.77
2019-01-27T22:18:37.265Z,71.33
2019-01-27T22:21:06.671Z,78.17
2019-01-27T22:23:36.029Z,74.53
2019-01-27T22:26:05.383Z,69.70
2019-01-27T22:28:36.436Z,75.63
2019-01-27T22:31:05.839Z,76.13
2019-01-27T22:33:35.375Z,78.53
2019-01-27T22:36:04.966Z,73.13
2019-01-27T22:38:34.364Z,73.43
2019-01-27T22:41:03.628Z,78.13
2019-01-27T22:43:33.669Z,70.67
2019-01-27T22:46:02.986Z,76.23
2019-01-27T22:48:32.350Z,79.60
2019-01-27T22:51:01.823Z,74.87
2019-01-27T22:53:31.284Z,73.90
2019-01-27T22:56:01.029Z,73.67
2019-01-27T22:58:32.656Z,74.17
2019-01-27T23:01:06.520Z,81.47
2019-01-27T23:03:44.197Z,76.80
2019-01-27T23:06:13.603Z,74.53
2019-01-27T23:08:42.889Z,69.57
2019-01-27T23:11:15.360Z,78.20
2019-01-27T23:13:44.850Z,74.07
2019-01-27T23:16:16.897Z,81.60
2019-01-27T23:18:46.278Z,77.10
2019-01-27T23:21:15.518Z,77.50
2019-01-27T23:23:49.045Z,76.83
2019-01-27T23:26:18.475Z,78.83
2019-01-27T23:28:48.002Z,81.70
2019-01-27T23:31:17.492Z,80.73
2019-01-27T23:33:47.922Z,78.17
2019-01-27T23:36:17.166Z,76.57
2019-01-27T23:38:46.504Z,73.97
2019-01-27T23:41:15.941Z,83.17
2019-01-27T23:43:45.176Z,73.27
2019-01-27T23:46:14.586Z,74.40
2019-01-27T23:48:43.841Z,76.37
2019-01-27T23:51:13.303Z,82.60
2019-01-27T23:53:42.748Z,78.33
2019-01-27T23:56:12.164Z,77.77
2019-01-27T23:58:41.568Z,84.33
